Time;durP1;ratioP1;P1;durP2;ratioP2;P2;SDS_P1;SDS_P2;PMS_P1;PMS_P2;Temp;Humidity;BMP_temperature;BMP_pressure;BME280_temperature;BME280_humidity;BME280_pressure;Samples;Min_cycle;Max_cycle;Signal;HPM_P1;HPM_P2
2024/04/18 00:00:08;;;;;;;;;;;;;;;27.29;21.43;97268.97;5453103;26;19933;-79
2024/04/18 00:02:34;;;;;;;;;;;;;;;27.24;21.57;97258.34;5453067;26;21082;-78
2024/04/18 00:05:01;;;;;;;;;;;;;;;27.24;21.24;97264.78;5442603;26;20400;-78
2024/04/18 00:07:27;;;;;;;;;;;;;;;27.35;21.29;97264.28;5438150;26;19929;-78
2024/04/18 00:09:53;;;;;;;;;;;;;;;27.45;21.18;97267.84;5452436;26;19948;-78
2024/04/18 00:12:19;;;;;;;;;;;;;;;27.45;21.00;97267.84;5438291;26;20260;-78
2024/04/18 00:14:45;;;;;;;;;;;;;;;27.46;21.03;97270.22;5411108;26;19929;-78
2024/04/18 00:17:11;;;;;;;;;;;;;;;27.50;21.06;97265.16;5428830;26;19929;-79
2024/04/18 00:19:37;;;;;;;;;;;;;;;27.50;20.96;97259.53;5453961;26;20326;-78
2024/04/18 00:22:04;;;;;;;;;;;;;;;27.56;21.08;97263.28;5453052;26;19932;-79
2024/04/18 00:24:30;;;;;;;;;;;;;;;27.59;21.21;97258.69;5451589;26;20309;-78
2024/04/18 00:26:56;;;;;;;;;;;;;;;27.62;20.76;97263.38;5454588;26;19929;-79
2024/04/18 00:29:22;;;;;;;;;;;;;;;27.64;20.91;97261.66;5439556;26;19936;-78
2024/04/18 00:31:48;;;;;;;;;;;;;;;27.64;21.09;97261.66;5418249;26;19929;-78
2024/04/18 00:34:14;;;;;;;;;;;;;;;27.60;20.85;97263.88;5418388;26;19936;-78
2024/04/18 00:36:40;;;;;;;;;;;;;;;27.57;21.11;97270.47;5417105;26;20304;-78
2024/04/18 00:39:06;;;;;;;;;;;;;;;27.58;21.05;97276.88;5452878;26;19978;-78
2024/04/18 00:41:32;;;;;;;;;;;;;;;27.55;21.07;97269.38;5453807;26;19928;-78
2024/04/18 00:43:58;;;;;;;;;;;;;;;27.52;21.09;97273.94;5454022;26;19936;-79
2024/04/18 00:46:27;;;;;;;;;;;;;;;27.11;21.27;97277.50;5451562;26;19928;-78
2024/04/18 00:48:54;;;;;;;;;;;;;;;26.84;21.77;97271.94;5453136;26;19936;-78
2024/04/18 00:51:20;;;;;;;;;;;;;;;26.71;21.79;97272.88;5454051;26;19960;-78
2024/04/18 00:53:46;;;;;;;;;;;;;;;26.60;22.05;97275.38;5423792;26;20352;-79
2024/04/18 00:56:13;;;;;;;;;;;;;;;26.31;22.17;97272.25;5454288;26;20424;-78
2024/04/18 00:58:40;;;;;;;;;;;;;;;26.23;22.23;97275.84;5452986;26;20368;-78
2024/04/18 01:01:06;;;;;;;;;;;;;;;26.06;22.59;97275.31;5453262;26;20268;-78
2024/04/18 01:03:32;;;;;;;;;;;;;;;25.75;22.84;97272.59;5448743;26;19936;-78
2024/04/18 01:05:58;;;;;;;;;;;;;;;25.54;23.20;97272.69;5452869;26;19932;-78
2024/04/18 01:08:24;;;;;;;;;;;;;;;25.70;22.78;97276.03;5452821;26;20300;-78
2024/04/18 01:10:50;;;;;;;;;;;;;;;25.65;23.09;97278.69;5454429;26;19929;-78
2024/04/18 01:13:16;;;;;;;;;;;;;;;25.88;22.91;97278.13;5452779;26;19956;-78
2024/04/18 01:15:43;;;;;;;;;;;;;;;26.03;22.63;97265.00;5453454;26;19928;-78
2024/04/18 01:18:09;;;;;;;;;;;;;;;25.89;22.65;97276.84;5451206;26;19932;-78
2024/04/18 01:20:35;;;;;;;;;;;;;;;25.75;22.70;97280.25;5453034;26;19928;-79
2024/04/18 01:23:01;;;;;;;;;;;;;;;25.66;22.83;97274.59;5449359;26;19932;-78
2024/04/18 01:25:28;;;;;;;;;;;;;;;25.50;22.86;97278.47;5416590;26;20244;-78
2024/04/18 01:27:54;;;;;;;;;;;;;;;25.53;22.87;97280.34;5454283;26;19937;-78
2024/04/18 01:30:20;;;;;;;;;;;;;;;25.44;22.90;97283.09;5450621;26;20433;-78
2024/04/18 01:32:46;;;;;;;;;;;;;;;25.47;22.85;97285.00;5453109;26;19928;-79
2024/04/18 01:35:12;;;;;;;;;;;;;;;25.14;23.37;97283.88;5453587;26;20372;-79
2024/04/18 01:37:38;;;;;;;;;;;;;;;25.33;23.11;97288.34;5451159;26;19928;-78
2024/04/18 01:40:04;;;;;;;;;;;;;;;25.54;22.94;97287.53;5453056;26;19960;-79
2024/04/18 01:42:30;;;;;;;;;;;;;;;25.58;23.01;97293.03;5451075;26;20386;-78
2024/04/18 01:44:56;;;;;;;;;;;;;;;25.67;22.90;97279.00;5449987;26;19936;-78
2024/04/18 01:47:22;;;;;;;;;;;;;;;25.49;23.12;97292.97;5419372;26;19936;-78
2024/04/18 01:49:48;;;;;;;;;;;;;;;25.72;22.71;97281.19;5453561;26;19928;-78
2024/04/18 01:52:14;;;;;;;;;;;;;;;25.78;22.67;97282.16;5455720;26;19928;-78
2024/04/18 01:54:40;;;;;;;;;;;;;;;26.18;22.25;97287.72;5444019;26;19928;-78
2024/04/18 01:57:06;;;;;;;;;;;;;;;26.47;21.89;97282.41;5449408;26;19936;-78
2024/04/18 01:59:32;;;;;;;;;;;;;;;26.64;21.59;97281.63;5455793;26;19940;-78
2024/04/18 02:01:58;;;;;;;;;;;;;;;26.76;21.36;97276.31;5447674;26;19935;-78
2024/04/18 02:04:24;;;;;;;;;;;;;;;26.72;21.14;97279.28;5451678;26;20260;-78
2024/04/18 02:06:50;;;;;;;;;;;;;;;26.44;21.47;97275.69;5454696;26;19928;-78
2024/04/18 02:09:17;;;;;;;;;;;;;;;26.07;21.92;97272.03;5423245;26;19935;-78
2024/04/18 02:11:43;;;;;;;;;;;;;;;25.84;22.35;97277.47;5453399;26;19933;-78
2024/04/18 02:14:13;;;;;;;;;;;;;;;25.73;22.63;97280.72;5454803;26;19974;-78
2024/04/18 02:16:39;;;;;;;;;;;;;;;25.78;22.38;97280.13;5444729;26;19928;-78
2024/04/18 02:19:05;;;;;;;;;;;;;;;25.90;22.15;97282.03;5455099;26;19928;-78
2024/04/18 02:21:31;;;;;;;;;;;;;;;25.89;22.44;97277.63;5451904;26;19944;-79
2024/04/18 02:23:57;;;;;;;;;;;;;;;25.98;22.22;97279.69;5455025;26;20260;-78
2024/04/18 02:26:23;;;;;;;;;;;;;;;25.99;22.32;97279.22;5447429;26;20264;-78
2024/04/18 02:28:49;;;;;;;;;;;;;;;26.20;22.01;97288.81;5438085;26;19929;-79
2024/04/18 02:31:15;;;;;;;;;;;;;;;26.01;22.20;97285.16;5452121;26;19936;-79
2024/04/18 02:33:41;;;;;;;;;;;;;;;25.45;23.01;97295.16;5422216;26;19952;-79
2024/04/18 02:36:07;;;;;;;;;;;;;;;25.38;23.15;97294.16;5444374;26;19940;-79
2024/04/18 02:38:33;;;;;;;;;;;;;;;25.70;22.77;97290.09;5453060;26;19933;-79
2024/04/18 02:41:03;;;;;;;;;;;;;;;25.66;22.66;97283.03;5453839;26;20440;-79
2024/04/18 02:43:29;;;;;;;;;;;;;;;25.69;22.62;97285.72;5454992;26;19982;-79
2024/04/18 02:45:55;;;;;;;;;;;;;;;25.47;22.82;97287.81;5455911;26;19940;-79
2024/04/18 02:48:21;;;;;;;;;;;;;;;25.42;22.73;97277.16;5456566;26;19939;-79
2024/04/18 02:50:47;;;;;;;;;;;;;;;24.70;23.53;97280.31;5456670;26;19933;-79
2024/04/18 02:53:13;;;;;;;;;;;;;;;24.52;23.55;97285.81;5444953;26;19952;-79
2024/04/18 02:55:39;;;;;;;;;;;;;;;24.81;23.07;97286.34;5454411;26;20298;-79
2024/04/18 02:58:05;;;;;;;;;;;;;;;24.81;23.20;97288.38;5453482;26;19965;-79
2024/04/18 03:00:34;;;;;;;;;;;;;;;24.52;23.36;97274.56;5452908;26;19984;-78
2024/04/18 03:03:00;;;;;;;;;;;;;;;24.76;23.16;97284.16;5441392;26;19952;-78
2024/04/18 03:05:26;;;;;;;;;;;;;;;25.06;22.67;97282.59;5446109;26;20342;-79
2024/04/18 03:07:56;;;;;;;;;;;;;;;25.25;22.67;97282.22;5455313;26;19928;-79
2024/04/18 03:10:22;;;;;;;;;;;;;;;25.41;22.44;97279.16;5453128;26;19997;-79
2024/04/18 03:12:51;;;;;;;;;;;;;;;25.69;21.91;97271.66;5451612;26;19941;-79
2024/04/18 03:15:17;;;;;;;;;;;;;;;25.91;21.77;97275.13;5450300;26;19938;-79
2024/04/18 03:17:43;;;;;;;;;;;;;;;25.69;21.95;97268.84;5442087;26;19956;-79
2024/04/18 03:20:09;;;;;;;;;;;;;;;25.43;22.33;97270.28;5453380;26;19929;-79
2024/04/18 03:22:40;;;;;;;;;;;;;;;25.35;22.65;97277.44;5449376;26;19940;-78
2024/04/18 03:25:06;;;;;;;;;;;;;;;25.04;22.99;97274.63;5454884;26;19939;-79
2024/04/18 03:27:33;;;;;;;;;;;;;;;25.06;23.21;97283.41;5421801;26;19937;-79
2024/04/18 03:29:59;;;;;;;;;;;;;;;24.52;23.51;97280.97;5455025;26;20364;-79
2024/04/18 03:32:25;;;;;;;;;;;;;;;24.28;23.86;97281.84;5453895;26;19940;-79
2024/04/18 03:34:52;;;;;;;;;;;;;;;24.05;24.38;97292.22;5449405;26;19936;-78
2024/04/18 03:37:18;;;;;;;;;;;;;;;24.11;24.16;97289.66;5453259;26;19929;-79
2024/04/18 03:39:44;;;;;;;;;;;;;;;24.23;24.16;97288.81;5452072;26;19929;-79
2024/04/18 03:42:10;;;;;;;;;;;;;;;24.55;23.53;97287.72;5448678;26;20004;-78
2024/04/18 03:44:36;;;;;;;;;;;;;;;24.47;23.70;97287.16;5413523;26;19935;-78
2024/04/18 03:47:02;;;;;;;;;;;;;;;24.58;23.61;97292.38;5430255;26;19933;-78
2024/04/18 03:49:38;;;;;;;;;;;;;;;24.25;23.76;97299.63;5429913;26;19940;-79
2024/04/18 03:52:04;;;;;;;;;;;;;;;24.47;23.82;97301.19;5419070;26;19928;-78
2024/04/18 03:54:30;;;;;;;;;;;;;;;24.67;23.68;97298.06;5427742;26;20362;-79
2024/04/18 03:56:56;;;;;;;;;;;;;;;25.18;23.24;97298.59;5437195;26;19944;-78
2024/04/18 03:59:22;;;;;;;;;;;;;;;25.05;23.29;97301.47;5430954;26;19928;-78
2024/04/18 04:01:48;;;;;;;;;;;;;;;25.55;22.68;97299.56;5436822;26;19928;-78
2024/04/18 04:04:14;;;;;;;;;;;;;;;25.59;22.68;97303.00;5438910;26;19929;-78
2024/04/18 04:06:40;;;;;;;;;;;;;;;25.95;22.45;97300.31;5437911;26;19931;-78
2024/04/18 04:09:07;;;;;;;;;;;;;;;26.27;22.18;97294.13;5442512;26;19978;-78
2024/04/18 04:11:33;;;;;;;;;;;;;;;26.54;21.72;97302.59;5417235;26;19928;-78
2024/04/18 04:13:59;;;;;;;;;;;;;;;26.70;21.52;97302.25;5449569;26;20371;-78
2024/04/18 04:16:25;;;;;;;;;;;;;;;26.54;21.72;97301.78;5407726;26;19929;-78
2024/04/18 04:18:54;;;;;;;;;;;;;;;26.54;21.71;97307.44;5454611;26;19935;-78
2024/04/18 04:21:21;;;;;;;;;;;;;;;26.63;21.63;97310.25;5442455;26;19940;-78
2024/04/18 04:23:47;;;;;;;;;;;;;;;26.64;21.58;97321.06;5440501;26;20260;-78
2024/04/18 04:26:13;;;;;;;;;;;;;;;26.65;21.55;97319.78;5438986;26;19940;-78
2024/04/18 04:28:39;;;;;;;;;;;;;;;26.45;21.68;97315.88;5437004;26;20293;-78
2024/04/18 04:31:05;;;;;;;;;;;;;;;26.06;22.22;97320.34;5445583;26;19928;-78
2024/04/18 04:33:32;;;;;;;;;;;;;;;25.83;22.37;97329.34;5449003;26;19939;-78
2024/04/18 04:35:58;;;;;;;;;;;;;;;25.90;22.51;97334.69;5440911;26;19933;-78
2024/04/18 04:38:25;;;;;;;;;;;;;;;26.15;22.38;97337.28;5439150;26;19929;-78
2024/04/18 04:40:51;;;;;;;;;;;;;;;26.29;22.13;97336.66;5448768;26;19937;-78
2024/04/18 04:43:17;;;;;;;;;;;;;;;26.07;22.33;97328.31;5418230;26;20011;-78
2024/04/18 04:45:43;;;;;;;;;;;;;;;25.89;22.63;97335.91;5439980;26;19955;-79
2024/04/18 04:48:09;;;;;;;;;;;;;;;25.99;22.77;97331.88;5416983;26;20330;-78
2024/04/18 04:50:40;;;;;;;;;;;;;;;25.58;22.72;97341.56;5440427;26;19939;-78
2024/04/18 04:53:07;;;;;;;;;;;;;;;25.36;23.19;97347.25;5449431;26;19936;-78
2024/04/18 04:55:35;;;;;;;;;;;;;;;25.85;22.64;97340.91;5434698;26;19928;-78
2024/04/18 04:58:02;;;;;;;;;;;;;;;25.91;22.87;97345.47;5438296;26;19962;-78
2024/04/18 05:00:28;;;;;;;;;;;;;;;26.39;22.84;97349.50;5429363;26;19936;-78
2024/04/18 05:02:54;;;;;;;;;;;;;;;26.31;22.43;97353.06;5428819;26;19928;-78
2024/04/18 05:05:20;;;;;;;;;;;;;;;26.38;22.69;97350.75;5444371;26;19928;-78
2024/04/18 05:07:46;;;;;;;;;;;;;;;26.46;22.99;97351.25;5455734;26;19940;-78
2024/04/18 05:10:12;;;;;;;;;;;;;;;26.60;22.79;97354.22;5446991;26;19940;-78
2024/04/18 05:12:38;;;;;;;;;;;;;;;26.50;22.83;97361.09;5409929;26;19941;-78
2024/04/18 05:15:04;;;;;;;;;;;;;;;26.42;22.77;97361.88;5428468;26;19936;-78
2024/04/18 05:17:30;;;;;;;;;;;;;;;25.93;22.85;97361.84;5432269;26;19935;-79
2024/04/18 05:19:57;;;;;;;;;;;;;;;25.82;23.25;97369.94;5453207;26;19981;-78
2024/04/18 05:22:23;;;;;;;;;;;;;;;25.18;24.05;97368.84;5452603;26;19940;-79
2024/04/18 05:24:49;;;;;;;;;;;;;;;25.18;23.96;97374.44;5444454;26;19929;-78
2024/04/18 05:27:15;;;;;;;;;;;;;;;24.85;24.20;97376.06;5443699;26;19956;-79
2024/04/18 05:32:26;;;;;;;;;;;;;;;24.75;24.48;97380.81;5448669;26;20009;-78
2024/04/18 05:34:52;;;;;;;;;;;;;;;24.64;24.67;97383.97;5440474;26;19940;-78
2024/04/18 05:37:20;;;;;;;;;;;;;;;24.89;24.38;97383.13;5441156;26;19929;-78
2024/04/18 05:39:46;;;;;;;;;;;;;;;25.09;24.02;97386.38;5451189;26;19947;-78
2024/04/18 05:45:16;;;;;;;;;;;;;;;24.70;24.93;97393.41;5451637;26;19994;-78
2024/04/18 05:47:42;;;;;;;;;;;;;;;23.97;25.25;97388.25;5449369;26;19937;-78
2024/04/18 05:50:08;;;;;;;;;;;;;;;24.46;24.86;97391.44;5447449;26;20376;-78
2024/04/18 05:52:34;;;;;;;;;;;;;;;24.58;25.01;97385.00;5452731;26;19939;-78
2024/04/18 05:55:00;;;;;;;;;;;;;;;25.32;24.10;97393.59;5448236;26;19943;-78
2024/04/18 05:57:26;;;;;;;;;;;;;;;25.51;23.67;97394.50;5420923;26;20008;-78
2024/04/18 05:59:52;;;;;;;;;;;;;;;25.35;24.03;97395.47;5453484;26;19928;-78
2024/04/18 06:02:18;;;;;;;;;;;;;;;25.71;24.13;97386.47;5447482;26;19929;-78
2024/04/18 06:04:44;;;;;;;;;;;;;;;26.46;23.39;97390.66;5435683;26;20249;-78
2024/04/18 06:07:10;;;;;;;;;;;;;;;25.35;25.61;97393.44;5450226;26;19928;-78
2024/04/18 06:09:36;;;;;;;;;;;;;;;25.26;24.07;97396.19;5444157;26;19936;-78
2024/04/18 06:12:02;;;;;;;;;;;;;;;25.71;23.92;97398.50;5444998;26;19928;-79
2024/04/18 06:14:28;;;;;;;;;;;;;;;26.27;23.73;97389.03;5440449;26;19935;-79
2024/04/18 06:16:54;;;;;;;;;;;;;;;26.26;23.24;97395.91;5438564;26;19968;-79
2024/04/18 06:19:20;;;;;;;;;;;;;;;26.44;23.09;97391.09;5440334;26;20005;-79
2024/04/18 06:21:46;;;;;;;;;;;;;;;26.46;23.03;97393.47;5417206;26;19932;-79
2024/04/18 06:24:12;;;;;;;;;;;;;;;26.71;23.04;97393.97;5447328;26;19928;-79
2024/04/18 06:26:38;;;;;;;;;;;;;;;27.10;22.55;97394.28;5449054;26;19952;-79
2024/04/18 06:29:04;;;;;;;;;;;;;;;26.96;22.61;97394.91;5442866;26;20498;-79
2024/04/18 06:31:30;;;;;;;;;;;;;;;27.15;21.98;97396.47;5447977;26;20324;-79
2024/04/18 06:33:56;;;;;;;;;;;;;;;27.21;22.71;97394.59;5452026;26;20260;-79
2024/04/18 06:36:22;;;;;;;;;;;;;;;27.56;23.07;97392.22;5450634;26;19935;-80
2024/04/18 06:38:48;;;;;;;;;;;;;;;27.79;21.50;97395.13;5450394;26;19936;-79
2024/04/18 06:41:14;;;;;;;;;;;;;;;27.71;22.10;97405.16;5451145;26;19928;-79
2024/04/18 06:43:40;;;;;;;;;;;;;;;27.83;21.47;97407.00;5448313;26;19944;-79
2024/04/18 06:46:06;;;;;;;;;;;;;;;27.97;21.65;97409.16;5451651;26;19928;-79
2024/04/18 06:48:32;;;;;;;;;;;;;;;28.40;21.72;97418.38;5454255;26;19932;-80
2024/04/18 06:50:58;;;;;;;;;;;;;;;28.25;21.13;97409.81;5461519;26;19941;-80
2024/04/18 06:53:24;;;;;;;;;;;;;;;28.27;21.67;97415.78;5454149;26;19929;-80
2024/04/18 06:55:50;;;;;;;;;;;;;;;28.95;22.83;97404.69;5452870;26;19929;-80
2024/04/18 06:58:16;;;;;;;;;;;;;;;28.87;20.30;97409.16;5452687;26;19928;-79
2024/04/18 07:00:43;;;;;;;;;;;;;;;28.22;22.01;97410.00;5452965;26;19928;-80
2024/04/18 07:03:12;;;;;;;;;;;;;;;28.64;22.59;97407.88;5453280;26;19929;-80
2024/04/18 07:05:38;;;;;;;;;;;;;;;28.83;21.27;97406.50;5450162;26;20241;-80
2024/04/18 07:08:04;;;;;;;;;;;;;;;28.02;20.93;97414.19;5454607;26;19935;-80
2024/04/18 07:10:31;;;;;;;;;;;;;;;27.17;21.83;97410.88;5450139;26;19936;-80
2024/04/18 07:12:57;;;;;;;;;;;;;;;27.58;22.52;97424.31;5449526;26;19932;-80
2024/04/18 07:15:23;;;;;;;;;;;;;;;28.22;22.14;97412.81;5454349;26;19936;-80
2024/04/18 07:17:52;;;;;;;;;;;;;;;29.00;21.46;97406.84;5421273;26;19939;-80
2024/04/18 07:20:17;;;;;;;;;;;;;;;27.86;22.96;97411.72;5450460;26;20284;-80
2024/04/18 07:22:43;;;;;;;;;;;;;;;27.95;23.50;97413.69;5453804;26;19929;-80
2024/04/18 07:25:09;;;;;;;;;;;;;;;28.21;24.53;97416.91;5446769;26;19929;-79
2024/04/18 07:27:35;;;;;;;;;;;;;;;29.27;21.07;97415.09;5454391;26;19932;-80
2024/04/18 07:30:01;;;;;;;;;;;;;;;29.71;21.14;97417.97;5450267;26;19961;-80
2024/04/18 07:32:27;;;;;;;;;;;;;;;30.05;20.92;97409.56;5451696;26;19935;-80
2024/04/18 07:34:53;;;;;;;;;;;;;;;30.01;20.92;97399.72;5420973;26;19928;-80
2024/04/18 07:37:20;;;;;;;;;;;;;;;29.40;20.29;97407.91;5450638;26;19932;-80
2024/04/18 07:39:46;;;;;;;;;;;;;;;29.50;20.66;97414.25;5453986;26;19982;-80
2024/04/18 07:42:12;;;;;;;;;;;;;;;29.96;20.35;97411.72;5451673;26;19957;-80
2024/04/18 07:44:38;;;;;;;;;;;;;;;30.53;21.68;97410.03;5451386;26;19928;-80
2024/04/18 07:47:06;;;;;;;;;;;;;;;30.18;19.81;97416.97;5420839;26;19957;-80
2024/04/18 07:49:32;;;;;;;;;;;;;;;29.94;20.10;97414.28;5418613;26;20271;-80
2024/04/18 07:51:58;;;;;;;;;;;;;;;30.05;20.36;97408.78;5450496;26;19936;-80
2024/04/18 07:54:24;;;;;;;;;;;;;;;30.62;20.37;97411.97;5450063;26;19935;-80
2024/04/18 07:56:50;;;;;;;;;;;;;;;30.13;21.18;97412.75;5457968;26;19928;-80
2024/04/18 07:59:16;;;;;;;;;;;;;;;30.10;21.26;97408.09;5462658;26;20374;-80
2024/04/18 08:01:42;;;;;;;;;;;;;;;30.52;20.09;97408.50;5450692;26;19928;-80
2024/04/18 08:04:08;;;;;;;;;;;;;;;30.99;19.00;97409.38;5447910;26;19936;-80
2024/04/18 08:06:35;;;;;;;;;;;;;;;30.89;19.75;97407.97;5413679;26;19935;-80
2024/04/18 08:09:02;;;;;;;;;;;;;;;30.95;18.92;97401.06;5453013;26;19928;-80
2024/04/18 08:11:28;;;;;;;;;;;;;;;29.26;19.17;97405.06;5450245;26;19929;-81
2024/04/18 08:13:54;;;;;;;;;;;;;;;28.16;19.68;97401.41;5454067;26;19927;-80
2024/04/18 08:16:20;;;;;;;;;;;;;;;28.71;18.31;97407.53;5451277;26;19936;-80
2024/04/18 08:18:46;;;;;;;;;;;;;;;27.36;20.09;97401.94;5450886;26;19928;-80
2024/04/18 08:21:13;;;;;;;;;;;;;;;26.97;21.24;97408.56;5452473;26;20278;-80
2024/04/18 08:23:39;;;;;;;;;;;;;;;26.59;21.77;97405.34;5452476;26;19929;-80
2024/04/18 08:26:05;;;;;;;;;;;;;;;26.81;21.63;97403.22;5449090;26;19928;-80
2024/04/18 08:28:31;;;;;;;;;;;;;;;26.47;21.64;97397.81;5452127;26;19928;-80
2024/04/18 08:30:57;;;;;;;;;;;;;;;26.52;22.94;97398.00;5454309;26;19990;-80
2024/04/18 08:33:23;;;;;;;;;;;;;;;26.90;22.20;97402.44;5450053;26;19928;-80
2024/04/18 08:35:49;;;;;;;;;;;;;;;26.31;23.15;97400.91;5447903;26;19928;-80
2024/04/18 08:38:15;;;;;;;;;;;;;;;27.14;22.27;97404.13;5421729;26;20269;-80
2024/04/18 08:40:44;;;;;;;;;;;;;;;26.79;21.95;97399.31;5449211;26;19992;-80
2024/04/18 08:43:10;;;;;;;;;;;;;;;26.75;22.37;97407.91;5450301;26;20374;-79
2024/04/18 08:45:38;;;;;;;;;;;;;;;26.16;22.61;97417.63;5423984;26;19934;-79
2024/04/18 08:48:05;;;;;;;;;;;;;;;26.02;23.50;97416.13;5460446;26;20021;-80
2024/04/18 08:50:31;;;;;;;;;;;;;;;25.34;23.10;97414.34;5451121;26;19932;-80
2024/04/18 08:52:57;;;;;;;;;;;;;;;26.32;22.09;97416.56;5451079;26;19973;-80
2024/04/18 08:55:23;;;;;;;;;;;;;;;26.89;21.32;97406.50;5453119;26;19936;-80
2024/04/18 08:57:52;;;;;;;;;;;;;;;26.61;21.90;97412.09;5449926;26;19932;-80
2024/04/18 09:00:18;;;;;;;;;;;;;;;26.21;22.19;97413.44;5452102;26;19928;-80
2024/04/18 09:02:45;;;;;;;;;;;;;;;25.20;23.65;97425.34;5448972;26;19941;-81
2024/04/18 09:05:11;;;;;;;;;;;;;;;25.37;23.41;97421.06;5450842;26;20367;-80
2024/04/18 09:07:37;;;;;;;;;;;;;;;24.65;25.35;97435.28;5451947;26;20372;-81
2024/04/18 09:10:07;;;;;;;;;;;;;;;24.69;26.42;97433.94;5451912;26;19935;-80
2024/04/18 09:12:33;;;;;;;;;;;;;;;22.62;32.05;97436.22;5447865;26;19944;-80
2024/04/18 09:14:59;;;;;;;;;;;;;;;22.69;28.91;97438.81;5420320;26;20006;-80
2024/04/18 09:17:27;;;;;;;;;;;;;;;22.10;28.54;97441.09;5453195;26;19944;-80
2024/04/18 09:19:53;;;;;;;;;;;;;;;23.59;27.11;97435.91;5449426;26;19929;-79
2024/04/18 09:22:19;;;;;;;;;;;;;;;24.81;25.55;97435.16;5450076;26;19928;-79
2024/04/18 09:24:46;;;;;;;;;;;;;;;26.12;24.18;97431.03;5448500;26;19945;-79
2024/04/18 09:27:13;;;;;;;;;;;;;;;26.91;23.14;97423.75;5448698;26;20352;-79
2024/04/18 09:29:39;;;;;;;;;;;;;;;27.04;23.21;97422.31;5450488;26;20376;-79
2024/04/18 09:32:06;;;;;;;;;;;;;;;27.19;22.88;97417.59;5446658;26;19935;-79
2024/04/18 09:34:34;;;;;;;;;;;;;;;26.96;23.38;97418.25;5450373;26;19935;-79
2024/04/18 09:37:06;;;;;;;;;;;;;;;26.38;24.66;97421.13;5444627;26;19929;-80
2024/04/18 09:39:34;;;;;;;;;;;;;;;26.31;23.73;97418.59;5461417;26;19936;-80
2024/04/18 09:42:03;;;;;;;;;;;;;;;26.79;23.00;97413.41;5452372;26;19935;-80
2024/04/18 09:44:30;;;;;;;;;;;;;;;27.70;23.26;97414.09;5445491;26;20376;-80
2024/04/18 09:46:58;;;;;;;;;;;;;;;27.52;21.98;97414.94;5444299;26;19929;-79
2024/04/18 09:49:25;;;;;;;;;;;;;;;28.10;21.72;97408.94;5446173;26;19928;-80
2024/04/18 09:51:51;;;;;;;;;;;;;;;28.27;21.18;97412.16;5435315;26;20004;-80
2024/04/18 09:54:17;;;;;;;;;;;;;;;28.43;20.89;97408.94;5413401;26;19929;-80
2024/04/18 09:56:46;;;;;;;;;;;;;;;29.11;20.98;97404.22;5449883;26;19935;-80
2024/04/18 09:59:13;;;;;;;;;;;;;;;28.51;21.14;97399.63;5452230;26;19936;-80
2024/04/18 10:01:40;;;;;;;;;;;;;;;28.55;21.60;97400.22;5420608;26;20276;-80
2024/04/18 10:04:06;;;;;;;;;;;;;;;29.08;20.08;97394.66;5450584;26;19940;-80
2024/04/18 10:06:35;;;;;;;;;;;;;;;28.68;19.99;97394.38;5452631;26;19928;-80
2024/04/18 10:09:03;;;;;;;;;;;;;;;29.18;19.99;97398.22;5421486;26;19960;-80
2024/04/18 10:11:29;;;;;;;;;;;;;;;28.01;20.59;97389.25;5452371;26;19939;-81
2024/04/18 10:14:06;;;;;;;;;;;;;;;27.22;22.71;97382.84;5454313;26;19956;-80
2024/04/18 10:16:32;;;;;;;;;;;;;;;27.15;20.77;97390.84;5452126;26;19937;-80
2024/04/18 10:19:08;;;;;;;;;;;;;;;28.94;20.14;97386.94;5449917;26;19936;-80
2024/04/18 10:21:35;;;;;;;;;;;;;;;30.07;17.95;97389.25;5450640;26;19935;-81
2024/04/18 10:24:04;;;;;;;;;;;;;;;28.40;18.60;97392.97;5453551;26;19936;-80
2024/04/18 10:26:31;;;;;;;;;;;;;;;26.87;20.41;97403.38;5451186;26;19936;-80
2024/04/18 10:28:57;;;;;;;;;;;;;;;25.72;22.35;97422.56;5448246;26;20268;-80
2024/04/18 10:31:26;;;;;;;;;;;;;;;25.40;22.16;97435.00;5450511;26;19929;-80
2024/04/18 10:33:53;;;;;;;;;;;;;;;25.73;22.10;97443.03;5438554;26;19977;-80
2024/04/18 10:36:19;;;;;;;;;;;;;;;24.38;24.08;97451.84;5452384;26;19928;-80
2024/04/18 10:38:46;;;;;;;;;;;;;;;22.69;29.19;97466.00;5452462;26;19929;-80
2024/04/18 10:41:17;;;;;;;;;;;;;;;23.29;26.76;97465.16;5420329;26;19956;-79
2024/04/18 10:43:44;;;;;;;;;;;;;;;19.49;33.17;97484.13;5445387;26;19935;-80
2024/04/18 10:46:10;;;;;;;;;;;;;;;17.62;35.35;97485.84;5419826;26;19929;-79
2024/04/18 10:48:36;;;;;;;;;;;;;;;20.48;31.76;97456.38;5458599;26;19928;-79
2024/04/18 10:51:03;;;;;;;;;;;;;;;23.79;28.18;97444.88;5451591;26;20225;-79
2024/04/18 10:53:29;;;;;;;;;;;;;;;26.04;26.90;97446.63;5452713;26;19982;-79
2024/04/18 10:55:55;;;;;;;;;;;;;;;27.07;23.97;97441.09;5441801;26;19955;-79
2024/04/18 10:58:21;;;;;;;;;;;;;;;27.26;24.02;97431.38;5452815;26;19928;-79
2024/04/18 11:00:47;;;;;;;;;;;;;;;26.47;24.11;97440.06;5447349;26;19933;-80
2024/04/18 11:03:13;;;;;;;;;;;;;;;26.83;23.81;97434.53;5448901;26;19978;-80
2024/04/18 11:05:43;;;;;;;;;;;;;;;27.26;24.21;97433.41;5451148;26;20268;-79
2024/04/18 11:08:09;;;;;;;;;;;;;;;27.46;23.43;97442.22;5453679;26;19928;-79
2024/04/18 11:10:37;;;;;;;;;;;;;;;27.55;24.46;97439.38;5454391;26;19929;-79
2024/04/18 11:13:03;;;;;;;;;;;;;;;27.82;22.06;97444.94;5453475;26;19940;-79
2024/04/18 11:15:30;;;;;;;;;;;;;;;28.11;23.85;97437.97;5453481;26;19970;-79
2024/04/18 11:17:56;;;;;;;;;;;;;;;28.69;21.24;97449.59;5454467;26;19928;-79
2024/04/18 11:20:22;;;;;;;;;;;;;;;28.81;21.35;97439.31;5454372;26;19960;-79
2024/04/18 11:22:48;;;;;;;;;;;;;;;28.52;21.30;97446.38;5451255;26;19936;-79
2024/04/18 11:25:14;;;;;;;;;;;;;;;27.43;22.06;97454.41;5447582;26;20267;-79
2024/04/18 11:27:40;;;;;;;;;;;;;;;27.01;23.29;97459.88;5447572;26;20245;-79
2024/04/18 11:30:13;;;;;;;;;;;;;;;27.36;21.78;97463.16;5453248;26;19935;-80
2024/04/18 11:32:39;;;;;;;;;;;;;;;27.07;22.35;97462.88;5414033;26;20470;-79
2024/04/18 11:35:05;;;;;;;;;;;;;;;27.60;23.03;97468.97;5451897;26;19928;-79
2024/04/18 11:37:38;;;;;;;;;;;;;;;28.03;22.53;97465.75;5446549;26;19936;-79
2024/04/18 11:40:09;;;;;;;;;;;;;;;28.49;21.59;97460.69;5446784;26;19937;-79
2024/04/18 11:42:35;;;;;;;;;;;;;;;28.45;21.01;97458.03;5449777;26;19935;-79
2024/04/18 11:45:01;;;;;;;;;;;;;;;27.84;22.86;97450.88;5446149;26;19953;-79
2024/04/18 11:47:42;;;;;;;;;;;;;;;27.53;23.41;97452.38;5447385;26;19935;-79
2024/04/18 11:50:08;;;;;;;;;;;;;;;27.57;23.35;97448.13;5417167;26;19935;-79
2024/04/18 11:52:34;;;;;;;;;;;;;;;28.02;23.58;97459.34;5450153;26;19928;-79
2024/04/18 11:55:00;;;;;;;;;;;;;;;28.72;22.99;97460.75;5451509;26;20080;-79
2024/04/18 11:57:26;;;;;;;;;;;;;;;29.14;21.66;97465.47;5450947;26;19929;-79
2024/04/18 11:59:52;;;;;;;;;;;;;;;29.24;20.87;97464.16;5448898;26;19929;-79
2024/04/18 12:02:19;;;;;;;;;;;;;;;28.89;21.13;97468.78;5446831;26;19935;-79
2024/04/18 12:04:45;;;;;;;;;;;;;;;28.69;21.25;97472.22;5445229;26;19945;-79
2024/04/18 12:07:11;;;;;;;;;;;;;;;28.17;20.73;97476.34;5451590;26;19944;-79
2024/04/18 12:09:39;;;;;;;;;;;;;;;26.49;23.41;97494.66;5448820;26;19936;-79
2024/04/18 12:12:05;;;;;;;;;;;;;;;23.21;26.95;97503.00;5456679;26;19952;-79
2024/04/18 12:14:31;;;;;;;;;;;;;;;21.86;28.45;97501.16;5458842;26;19936;-79
2024/04/18 12:16:57;;;;;;;;;;;;;;;22.34;28.22;97500.44;5449487;26;20352;-79
2024/04/18 12:19:23;;;;;;;;;;;;;;;23.14;26.96;97492.00;5436541;26;19997;-79
2024/04/18 12:21:49;;;;;;;;;;;;;;;24.60;25.72;97492.00;5448332;26;20016;-79
2024/04/18 12:24:17;;;;;;;;;;;;;;;25.75;24.54;97482.72;5451502;26;19928;-80
2024/04/18 12:26:44;;;;;;;;;;;;;;;26.16;24.15;97490.78;5448013;26;19944;-79
2024/04/18 12:29:11;;;;;;;;;;;;;;;26.58;23.89;97491.09;5448301;26;21649;-79
2024/04/18 12:31:37;;;;;;;;;;;;;;;27.01;22.98;97482.44;5451988;26;19933;-80
2024/04/18 12:34:03;;;;;;;;;;;;;;;27.42;22.93;97483.88;5411638;26;19943;-79
2024/04/18 12:36:29;;;;;;;;;;;;;;;27.98;22.49;97486.13;5450856;26;19937;-79
2024/04/18 12:38:55;;;;;;;;;;;;;;;28.21;22.44;97490.31;5447488;26;19928;-79
2024/04/18 12:41:21;;;;;;;;;;;;;;;28.36;21.88;97491.97;5452561;26;19935;-79
2024/04/18 12:43:47;;;;;;;;;;;;;;;28.28;22.95;97487.16;5450178;26;20395;-79
2024/04/18 12:46:13;;;;;;;;;;;;;;;28.36;21.77;97479.88;5460572;26;19996;-79
2024/04/18 12:48:39;;;;;;;;;;;;;;;27.26;22.52;97493.41;5462636;26;19940;-79